Terminal Aerodrome Forecast
Issued by NWS

Home | Current Version | Previous Version | Text Only | Print | Product List | Glossary On
Versions: 1 2 3 4 5 6 7 8 9 10 11 12 13
962
FTAK31 PAJN 131727
TAFAPG
TAF
PAPG 131727Z 1318/1418 VRB04KT P6SM VCSH SCT025 OVC050
      TEMPO 1322/1402 4SM -SHRA BR BKN020 OVC030
     FM140200 10005KT 6SM -RA BR FEW015 OVC025
     FM140600 13004KT 3SM -RA BR SCT007 BKN015 OVC030
     FM141500 VRB05KT 6SM -RA BR SCT015 OVC025
      AMD LTD TO CLD VIS AND WIND 1406/1415=

USA.gov is the U.S. government's official web portal to all federal, state and local government web resources and services.